sensor_id;sensor_type;location;lat;lon;timestamp;pressure;altitude;pressure_sealevel;temperature;humidity
73297;BME280;61524;50.938;11.396;2022-10-31T00:00:29;99500.16;;;6.88;100.00
73297;BME280;61524;50.938;11.396;2022-10-31T00:02:55;99495.28;;;6.84;100.00
73297;BME280;61524;50.938;11.396;2022-10-31T00:05:20;99480.00;;;6.73;100.00
73297;BME280;61524;50.938;11.396;2022-10-31T00:07:46;99463.50;;;6.58;100.00
73297;BME280;61524;50.938;11.396;2022-10-31T00:10:11;99495.72;;;6.75;100.00
73297;BME280;61524;50.938;11.396;2022-10-31T00:12:37;99494.91;;;6.74;100.00
73297;BME280;61524;50.938;11.396;2022-10-31T00:15:02;99506.16;;;6.70;100.00
73297;BME280;61524;50.938;11.396;2022-10-31T00:17:28;99510.22;;;6.72;100.00
73297;BME280;61524;50.938;11.396;2022-10-31T00:19:53;99519.22;;;6.71;100.00
73297;BME280;61524;50.938;11.396;2022-10-31T00:22:18;99525.34;;;6.72;100.00
73297;BME280;61524;50.938;11.396;2022-10-31T00:24:44;99518.63;;;6.69;100.00
73297;BME280;61524;50.938;11.396;2022-10-31T00:27:09;99521.47;;;6.68;100.00
73297;BME280;61524;50.938;11.396;2022-10-31T00:29:35;99519.63;;;6.62;100.00
73297;BME280;61524;50.938;11.396;2022-10-31T00:32:00;99517.22;;;6.53;100.00
73297;BME280;61524;50.938;11.396;2022-10-31T00:34:26;99517.81;;;6.55;100.00
73297;BME280;61524;50.938;11.396;2022-10-31T00:36:51;99520.66;;;6.61;100.00
73297;BME280;61524;50.938;11.396;2022-10-31T00:39:17;99512.50;;;6.55;100.00
73297;BME280;61524;50.938;11.396;2022-10-31T00:41:42;99526.81;;;6.54;100.00
73297;BME280;61524;50.938;11.396;2022-10-31T00:44:07;99528.69;;;6.47;100.00
73297;BME280;61524;50.938;11.396;2022-10-31T00:46:33;99518.66;;;6.49;100.00
73297;BME280;61524;50.938;11.396;2022-10-31T00:48:58;99513.34;;;6.49;100.00
73297;BME280;61524;50.938;11.396;2022-10-31T00:51:24;99522.53;;;6.53;100.00
73297;BME280;61524;50.938;11.396;2022-10-31T00:53:49;99527.47;;;6.43;100.00
73297;BME280;61524;50.938;11.396;2022-10-31T00:56:15;99516.25;;;6.41;100.00
73297;BME280;61524;50.938;11.396;2022-10-31T00:58:40;99530.50;;;6.40;100.00
73297;BME280;61524;50.938;11.396;2022-10-31T01:01:05;99525.84;;;6.36;100.00
73297;BME280;61524;50.938;11.396;2022-10-31T01:03:33;99523.00;;;6.24;100.00
73297;BME280;61524;50.938;11.396;2022-10-31T01:06:07;99516.25;;;6.28;100.00
73297;BME280;61524;50.938;11.396;2022-10-31T01:08:34;99510.34;;;6.26;100.00
73297;BME280;61524;50.938;11.396;2022-10-31T01:13:31;99510.75;;;6.16;100.00
73297;BME280;61524;50.938;11.396;2022-10-31T01:15:57;99521.78;;;6.13;100.00
73297;BME280;61524;50.938;11.396;2022-10-31T01:18:23;99526.09;;;6.14;100.00
73297;BME280;61524;50.938;11.396;2022-10-31T01:20:59;99522.81;;;6.12;100.00
73297;BME280;61524;50.938;11.396;2022-10-31T01:23:25;99522.41;;;6.09;100.00
73297;BME280;61524;50.938;11.396;2022-10-31T01:25:59;99523.63;;;6.06;100.00
73297;BME280;61524;50.938;11.396;2022-10-31T01:28:25;99520.78;;;6.14;100.00
73297;BME280;61524;50.938;11.396;2022-10-31T01:30:50;99525.25;;;6.07;100.00
73297;BME280;61524;50.938;11.396;2022-10-31T01:33:15;99517.91;;;6.02;100.00
73297;BME280;61524;50.938;11.396;2022-10-31T01:35:41;99515.06;;;6.11;100.00
73297;BME280;61524;50.938;11.396;2022-10-31T01:38:06;99518.94;;;6.15;100.00
73297;BME280;61524;50.938;11.396;2022-10-31T01:40:31;99521.19;;;6.11;100.00
73297;BME280;61524;50.938;11.396;2022-10-31T01:42:57;99508.34;;;6.15;100.00
73297;BME280;61524;50.938;11.396;2022-10-31T01:45:23;99513.22;;;6.11;100.00
73297;BME280;61524;50.938;11.396;2022-10-31T01:47:49;99505.84;;;6.13;100.00
73297;BME280;61524;50.938;11.396;2022-10-31T01:50:29;99522.81;;;6.05;100.00
73297;BME280;61524;50.938;11.396;2022-10-31T01:52:58;99498.75;;;6.00;100.00
73297;BME280;61524;50.938;11.396;2022-10-31T01:55:28;99519.34;;;5.98;100.00
73297;BME280;61524;50.938;11.396;2022-10-31T01:57:57;99516.50;;;6.00;100.00
73297;BME280;61524;50.938;11.396;2022-10-31T02:00:25;99508.31;;;6.01;100.00
73297;BME280;61524;50.938;11.396;2022-10-31T02:02:51;99512.44;;;5.97;100.00
73297;BME280;61524;50.938;11.396;2022-10-31T02:05:22;99507.72;;;6.06;100.00
73297;BME280;61524;50.938;11.396;2022-10-31T02:08:03;99513.22;;;6.11;100.00
73297;BME280;61524;50.938;11.396;2022-10-31T02:10:31;99514.84;;;6.12;100.00
73297;BME280;61524;50.938;11.396;2022-10-31T02:12:58;99515.47;;;6.08;100.00
73297;BME280;61524;50.938;11.396;2022-10-31T02:15:26;99522.00;;;5.98;100.00
73297;BME280;61524;50.938;11.396;2022-10-31T02:17:53;99520.56;;;5.96;100.00
73297;BME280;61524;50.938;11.396;2022-10-31T02:20:29;99529.97;;;5.98;100.00
73297;BME280;61524;50.938;11.396;2022-10-31T02:26:07;99517.53;;;5.92;100.00
73297;BME280;61524;50.938;11.396;2022-10-31T02:31:22;99526.91;;;5.95;100.00
73297;BME280;61524;50.938;11.396;2022-10-31T02:34:02;99536.09;;;5.92;100.00
73297;BME280;61524;50.938;11.396;2022-10-31T02:42:00;99528.50;;;5.83;100.00
73297;BME280;61524;50.938;11.396;2022-10-31T02:44:48;99534.00;;;5.81;100.00
73297;BME280;61524;50.938;11.396;2022-10-31T02:47:17;99534.41;;;5.78;100.00
73297;BME280;61524;50.938;11.396;2022-10-31T02:52:21;99537.25;;;5.70;100.00
73297;BME280;61524;50.938;11.396;2022-10-31T02:54:47;99529.72;;;5.67;100.00
73297;BME280;61524;50.938;11.396;2022-10-31T02:57:15;99537.47;;;5.55;100.00
73297;BME280;61524;50.938;11.396;2022-10-31T02:59:49;99534.78;;;5.48;100.00
73297;BME280;61524;50.938;11.396;2022-10-31T03:02:25;99531.94;;;5.50;100.00
73297;BME280;61524;50.938;11.396;2022-10-31T03:10:29;99549.06;;;5.54;100.00
73297;BME280;61524;50.938;11.396;2022-10-31T03:13:08;99542.94;;;5.53;100.00
73297;BME280;61524;50.938;11.396;2022-10-31T03:15:37;99554.34;;;5.54;100.00
73297;BME280;61524;50.938;11.396;2022-10-31T03:18:08;99541.94;;;5.55;100.00
73297;BME280;61524;50.938;11.396;2022-10-31T03:20:44;99540.09;;;5.55;100.00
73297;BME280;61524;50.938;11.396;2022-10-31T03:23:15;99547.47;;;5.60;100.00
73297;BME280;61524;50.938;11.396;2022-10-31T03:25:42;99557.22;;;5.59;100.00
73297;BME280;61524;50.938;11.396;2022-10-31T03:28:11;99545.19;;;5.57;100.00
73297;BME280;61524;50.938;11.396;2022-10-31T03:30:41;99557.03;;;5.61;100.00
73297;BME280;61524;50.938;11.396;2022-10-31T03:33:11;99550.28;;;5.51;100.00
73297;BME280;61524;50.938;11.396;2022-10-31T03:35:41;99550.06;;;5.40;100.00
73297;BME280;61524;50.938;11.396;2022-10-31T03:38:08;99541.25;;;5.26;100.00
73297;BME280;61524;50.938;11.396;2022-10-31T03:40:36;99559.00;;;5.32;100.00
73297;BME280;61524;50.938;11.396;2022-10-31T03:43:10;99560.00;;;5.31;100.00
73297;BME280;61524;50.938;11.396;2022-10-31T03:45:44;99572.66;;;5.36;100.00
73297;BME280;61524;50.938;11.396;2022-10-31T03:48:11;99567.38;;;5.36;100.00
73297;BME280;61524;50.938;11.396;2022-10-31T03:53:26;99577.53;;;5.32;100.00
73297;BME280;61524;50.938;11.396;2022-10-31T03:56:01;99566.72;;;5.27;100.00
73297;BME280;61524;50.938;11.396;2022-10-31T03:58:32;99576.31;;;5.28;100.00
73297;BME280;61524;50.938;11.396;2022-10-31T04:01:00;99576.72;;;5.32;100.00
73297;BME280;61524;50.938;11.396;2022-10-31T04:03:31;99585.09;;;5.35;100.00
73297;BME280;61524;50.938;11.396;2022-10-31T04:06:02;99580.59;;;5.36;100.00
73297;BME280;61524;50.938;11.396;2022-10-31T04:08:32;99583.47;;;5.34;100.00
73297;BME280;61524;50.938;11.396;2022-10-31T04:11:00;99576.75;;;5.38;100.00
73297;BME280;61524;50.938;11.396;2022-10-31T04:13:30;99585.09;;;5.35;100.00
73297;BME280;61524;50.938;11.396;2022-10-31T04:15:57;99578.75;;;5.30;100.00
73297;BME280;61524;50.938;11.396;2022-10-31T04:18:23;99591.59;;;5.33;100.00
73297;BME280;61524;50.938;11.396;2022-10-31T04:20:49;99584.25;;;5.28;100.00
73297;BME280;61524;50.938;11.396;2022-10-31T04:23:25;99591.81;;;5.31;100.00
73297;BME280;61524;50.938;11.396;2022-10-31T04:25:52;99587.09;;;5.26;100.00
73297;BME280;61524;50.938;11.396;2022-10-31T04:28:18;99589.13;;;5.24;100.00
73297;BME280;61524;50.938;11.396;2022-10-31T04:30:43;99588.75;;;5.28;100.00
73297;BME280;61524;50.938;11.396;2022-10-31T04:33:09;99594.66;;;5.30;100.00
73297;BME280;61524;50.938;11.396;2022-10-31T04:35:35;99593.63;;;5.31;100.00
73297;BME280;61524;50.938;11.396;2022-10-31T04:38:00;99592.63;;;5.32;100.00
73297;BME280;61524;50.938;11.396;2022-10-31T04:40:26;99599.34;;;5.28;100.00
73297;BME280;61524;50.938;11.396;2022-10-31T04:42:51;99595.25;;;5.25;100.00
73297;BME280;61524;50.938;11.396;2022-10-31T04:45:16;99595.44;;;5.17;100.00
73297;BME280;61524;50.938;11.396;2022-10-31T04:47:42;99604.38;;;5.16;100.00
73297;BME280;61524;50.938;11.396;2022-10-31T04:50:08;99596.38;;;5.03;100.00
73297;BME280;61524;50.938;11.396;2022-10-31T04:52:39;99592.28;;;5.00;100.00
73297;BME280;61524;50.938;11.396;2022-10-31T04:55:05;99578.41;;;4.91;100.00
73297;BME280;61524;50.938;11.396;2022-10-31T04:57:30;99592.34;;;5.07;100.00
73297;BME280;61524;50.938;11.396;2022-10-31T04:59:56;99598.22;;;5.09;100.00
73297;BME280;61524;50.938;11.396;2022-10-31T05:02:21;99603.50;;;5.02;100.00
73297;BME280;61524;50.938;11.396;2022-10-31T05:04:46;99586.97;;;5.00;100.00
73297;BME280;61524;50.938;11.396;2022-10-31T05:07:12;99578.22;;;4.99;100.00
73297;BME280;61524;50.938;11.396;2022-10-31T05:09:37;99582.72;;;5.06;100.00
73297;BME280;61524;50.938;11.396;2022-10-31T05:12:03;99582.72;;;5.06;100.00
73297;BME280;61524;50.938;11.396;2022-10-31T05:14:28;99592.91;;;5.02;100.00
73297;BME280;61524;50.938;11.396;2022-10-31T05:16:54;99583.94;;;5.03;100.00
73297;BME280;61524;50.938;11.396;2022-10-31T05:19:19;99576.22;;;5.02;100.00
73297;BME280;61524;50.938;11.396;2022-10-31T05:21:45;99571.31;;;4.98;100.00
73297;BME280;61524;50.938;11.396;2022-10-31T05:24:10;99585.56;;;4.97;100.00
73297;BME280;61524;50.938;11.396;2022-10-31T05:26:36;99581.88;;;4.98;100.00
73297;BME280;61524;50.938;11.396;2022-10-31T05:29:01;99588.44;;;5.03;100.00
73297;BME280;61524;50.938;11.396;2022-10-31T05:31:26;99584.16;;;5.02;100.00
73297;BME280;61524;50.938;11.396;2022-10-31T05:33:52;99582.53;;;5.00;100.00
73297;BME280;61524;50.938;11.396;2022-10-31T05:36:17;99572.13;;;4.99;100.00
73297;BME280;61524;50.938;11.396;2022-10-31T05:38:43;99560.47;;;4.93;100.00
73297;BME280;61524;50.938;11.396;2022-10-31T05:41:08;99576.00;;;4.96;100.00
73297;BME280;61524;50.938;11.396;2022-10-31T05:43:34;99579.44;;;4.97;100.00
73297;BME280;61524;50.938;11.396;2022-10-31T05:46:00;99573.75;;;5.00;100.00
73297;BME280;61524;50.938;11.396;2022-10-31T05:48:25;99586.59;;;5.03;100.00
73297;BME280;61524;50.938;11.396;2022-10-31T05:50:51;99584.16;;;5.02;100.00
73297;BME280;61524;50.938;11.396;2022-10-31T05:53:17;99578.81;;;4.95;100.00
73297;BME280;61524;50.938;11.396;2022-10-31T05:55:42;99583.50;;;4.93;100.00
73297;BME280;61524;50.938;11.396;2022-10-31T05:58:09;99571.25;;;4.85;100.00
73297;BME280;61524;50.938;11.396;2022-10-31T06:00:34;99588.75;;;4.86;100.00
73297;BME280;61524;50.938;11.396;2022-10-31T06:03:01;99586.09;;;4.80;100.00
73297;BME280;61524;50.938;11.396;2022-10-31T06:05:27;99581.19;;;4.83;100.00
73297;BME280;61524;50.938;11.396;2022-10-31T06:07:53;99581.84;;;4.85;100.00
73297;BME280;61524;50.938;11.396;2022-10-31T06:10:18;99579.00;;;4.87;100.00
73297;BME280;61524;50.938;11.396;2022-10-31T06:12:46;99581.06;;;4.98;100.00
73297;BME280;61524;50.938;11.396;2022-10-31T06:15:11;99583.94;;;5.03;100.00
73297;BME280;61524;50.938;11.396;2022-10-31T06:17:37;99578.88;;;5.08;100.00
73297;BME280;61524;50.938;11.396;2022-10-31T06:20:04;99577.06;;;5.09;100.00
73297;BME280;61524;50.938;11.396;2022-10-31T06:22:29;99584.63;;;5.12;100.00
73297;BME280;61524;50.938;11.396;2022-10-31T06:24:55;99585.19;;;5.07;100.00
73297;BME280;61524;50.938;11.396;2022-10-31T06:27:20;99589.09;;;5.11;100.00
73297;BME280;61524;50.938;11.396;2022-10-31T06:29:46;99605.56;;;5.07;100.00
73297;BME280;61524;50.938;11.396;2022-10-31T06:32:12;99603.16;;;5.12;100.00
73297;BME280;61524;50.938;11.396;2022-10-31T06:34:38;99597.44;;;5.15;100.00
73297;BME280;61524;50.938;11.396;2022-10-31T06:37:06;99608.63;;;5.10;100.00
73297;BME280;61524;50.938;11.396;2022-10-31T06:39:32;99609.06;;;5.14;100.00
73297;BME280;61524;50.938;11.396;2022-10-31T06:41:57;99602.94;;;5.13;100.00
73297;BME280;61524;50.938;11.396;2022-10-31T06:44:23;99614.59;;;5.19;100.00
73297;BME280;61524;50.938;11.396;2022-10-31T06:46:48;99614.38;;;5.20;100.00
73297;BME280;61524;50.938;11.396;2022-10-31T06:49:13;99621.34;;;5.28;100.00
73297;BME280;61524;50.938;11.396;2022-10-31T06:51:39;99617.09;;;5.40;100.00
73297;BME280;61524;50.938;11.396;2022-10-31T06:54:04;99619.38;;;5.50;100.00
73297;BME280;61524;50.938;11.396;2022-10-31T06:56:30;99617.13;;;5.53;100.00
73297;BME280;61524;50.938;11.396;2022-10-31T06:58:55;99624.50;;;5.65;100.00
73297;BME280;61524;50.938;11.396;2022-10-31T07:01:21;99621.69;;;5.73;100.00
73297;BME280;61524;50.938;11.396;2022-10-31T07:03:46;99616.19;;;5.81;100.00
73297;BME280;61524;50.938;11.396;2022-10-31T07:06:11;99625.41;;;5.92;100.00
73297;BME280;61524;50.938;11.396;2022-10-31T07:08:37;99630.31;;;6.01;100.00
73297;BME280;61524;50.938;11.396;2022-10-31T07:11:02;99629.94;;;6.11;100.00
73297;BME280;61524;50.938;11.396;2022-10-31T07:13:28;99634.03;;;6.20;100.00
73297;BME280;61524;50.938;11.396;2022-10-31T07:15:55;99624.22;;;6.21;100.00
73297;BME280;61524;50.938;11.396;2022-10-31T07:18:24;99635.03;;;6.39;100.00
73297;BME280;61524;50.938;11.396;2022-10-31T07:20:49;99635.44;;;6.49;100.00
73297;BME280;61524;50.938;11.396;2022-10-31T07:23:15;99626.28;;;6.52;100.00
73297;BME280;61524;50.938;11.396;2022-10-31T07:25:41;99627.47;;;6.69;100.00
73297;BME280;61524;50.938;11.396;2022-10-31T07:28:07;99622.56;;;6.73;100.00
73297;BME280;61524;50.938;11.396;2022-10-31T07:30:33;99625.78;;;6.95;100.00
73297;BME280;61524;50.938;11.396;2022-10-31T07:32:58;99636.38;;;7.08;100.00
73297;BME280;61524;50.938;11.396;2022-10-31T07:35:28;99636.53;;;7.20;100.00
73297;BME280;61524;50.938;11.396;2022-10-31T07:37:54;99635.47;;;7.34;100.00
73297;BME280;61524;50.938;11.396;2022-10-31T07:40:20;99633.38;;;7.49;100.00
73297;BME280;61524;50.938;11.396;2022-10-31T07:42:48;99637.56;;;7.63;100.00
73297;BME280;61524;50.938;11.396;2022-10-31T07:45:17;99631.75;;;7.80;100.00
73297;BME280;61524;50.938;11.396;2022-10-31T07:47:52;99629.84;;;7.94;100.00
73297;BME280;61524;50.938;11.396;2022-10-31T07:50:19;99635.91;;;8.07;100.00
73297;BME280;61524;50.938;11.396;2022-10-31T07:52:45;99634.16;;;8.20;100.00
73297;BME280;61524;50.938;11.396;2022-10-31T07:55:11;99642.66;;;8.35;100.00
73297;BME280;61524;50.938;11.396;2022-10-31T07:57:37;99645.00;;;8.50;100.00
73297;BME280;61524;50.938;11.396;2022-10-31T08:00:07;99637.13;;;8.61;100.00
73297;BME280;61524;50.938;11.396;2022-10-31T08:02:33;99637.31;;;8.66;100.00
73297;BME280;61524;50.938;11.396;2022-10-31T08:04:59;99653.88;;;8.87;100.00
73297;BME280;61524;50.938;11.396;2022-10-31T08:07:25;99647.81;;;8.98;100.00
73297;BME280;61524;50.938;11.396;2022-10-31T08:09:51;99640.13;;;9.08;100.00
73297;BME280;61524;50.938;11.396;2022-10-31T08:12:17;99632.00;;;9.22;100.00
73297;BME280;61524;50.938;11.396;2022-10-31T08:14:42;99634.50;;;9.35;100.00
73297;BME280;61524;50.938;11.396;2022-10-31T08:17:09;99635.84;;;9.44;100.00
73297;BME280;61524;50.938;11.396;2022-10-31T08:19:34;99636.69;;;9.56;100.00
73297;BME280;61524;50.938;11.396;2022-10-31T08:22:00;99644.97;;;9.66;99.24
73297;BME280;61524;50.938;11.396;2022-10-31T08:24:25;99639.91;;;9.77;99.29
73297;BME280;61524;50.938;11.396;2022-10-31T08:26:51;99651.91;;;9.86;99.23
73297;BME280;61524;50.938;11.396;2022-10-31T08:29:17;99634.31;;;9.96;98.90
73297;BME280;61524;50.938;11.396;2022-10-31T08:31:43;99637.81;;;10.09;98.31
73297;BME280;61524;50.938;11.396;2022-10-31T08:34:09;99631.44;;;10.21;98.46
73297;BME280;61524;50.938;11.396;2022-10-31T08:36:34;99636.25;;;10.31;97.32
73297;BME280;61524;50.938;11.396;2022-10-31T08:39:00;99632.91;;;10.47;96.44
73297;BME280;61524;50.938;11.396;2022-10-31T08:41:25;99639.06;;;10.60;96.55
73297;BME280;61524;50.938;11.396;2022-10-31T08:43:51;99638.97;;;10.66;96.10
73297;BME280;61524;50.938;11.396;2022-10-31T08:46:16;99645.38;;;10.77;96.26
73297;BME280;61524;50.938;11.396;2022-10-31T08:48:42;99648.84;;;10.89;95.37
73297;BME280;61524;50.938;11.396;2022-10-31T08:51:08;99633.59;;;11.01;94.99
73297;BME280;61524;50.938;11.396;2022-10-31T08:53:34;99628.97;;;11.09;95.63
73297;BME280;61524;50.938;11.396;2022-10-31T08:55:59;99624.03;;;11.17;94.76
73297;BME280;61524;50.938;11.396;2022-10-31T08:58:25;99628.09;;;11.32;94.38
73297;BME280;61524;50.938;11.396;2022-10-31T09:00:53;99632.09;;;11.46;94.76
73297;BME280;61524;50.938;11.396;2022-10-31T09:03:21;99624.72;;;11.65;94.53
73297;BME280;61524;50.938;11.396;2022-10-31T09:05:47;99624.06;;;11.86;94.09
73297;BME280;61524;50.938;11.396;2022-10-31T09:08:13;99623.91;;;11.93;94.45
73297;BME280;61524;50.938;11.396;2022-10-31T09:10:39;99617.38;;;12.00;94.24
73297;BME280;61524;50.938;11.396;2022-10-31T09:13:07;99618.38;;;12.11;93.64
73297;BME280;61524;50.938;11.396;2022-10-31T09:15:35;99609.91;;;12.19;93.20
73297;BME280;61524;50.938;11.396;2022-10-31T09:18:01;99602.03;;;12.29;92.68
73297;BME280;61524;50.938;11.396;2022-10-31T09:20:27;99605.94;;;12.39;93.67
73297;BME280;61524;50.938;11.396;2022-10-31T09:22:58;99604.63;;;12.58;92.93
73297;BME280;61524;50.938;11.396;2022-10-31T09:25:24;99604.22;;;12.66;92.70
73297;BME280;61524;50.938;11.396;2022-10-31T09:27:50;99603.03;;;12.79;92.60
73297;BME280;61524;50.938;11.396;2022-10-31T09:30:15;99612.03;;;12.90;90.50
73297;BME280;61524;50.938;11.396;2022-10-31T09:32:40;99607.56;;;12.95;90.71
73297;BME280;61524;50.938;11.396;2022-10-31T09:35:06;99613.88;;;13.06;90.31
73297;BME280;61524;50.938;11.396;2022-10-31T09:37:32;99605.69;;;13.18;90.21
73297;BME280;61524;50.938;11.396;2022-10-31T09:39:57;99605.63;;;13.29;89.64
73297;BME280;61524;50.938;11.396;2022-10-31T09:45:21;99605.91;;;13.55;88.74
73297;BME280;61524;50.938;11.396;2022-10-31T09:48:14;99605.50;;;13.68;89.08
73297;BME280;61524;50.938;11.396;2022-10-31T09:50:49;99596.34;;;13.91;88.50
73297;BME280;61524;50.938;11.396;2022-10-31T09:55:47;99602.69;;;14.12;86.80
73297;BME280;61524;50.938;11.396;2022-10-31T09:58:19;99588.53;;;14.22;86.26
73297;BME280;61524;50.938;11.396;2022-10-31T10:00:47;99591.00;;;14.28;87.00
73297;BME280;61524;50.938;11.396;2022-10-31T10:06:17;99593.13;;;14.53;85.71
73297;BME280;61524;50.938;11.396;2022-10-31T10:08:44;99588.34;;;14.65;84.36
73297;BME280;61524;50.938;11.396;2022-10-31T10:22:10;99581.13;;;15.29;82.46
73297;BME280;61524;50.938;11.396;2022-10-31T10:25:07;99582.78;;;15.40;82.00
73297;BME280;61524;50.938;11.396;2022-10-31T10:27:40;99590.84;;;15.40;82.40
73297;BME280;61524;50.938;11.396;2022-10-31T10:30:14;99583.06;;;15.48;82.74
73297;BME280;61524;50.938;11.396;2022-10-31T10:38:07;99574.75;;;15.65;82.27
73297;BME280;61524;50.938;11.396;2022-10-31T10:40:35;99571.25;;;15.65;82.59
73297;BME280;61524;50.938;11.396;2022-10-31T10:45:57;99566.47;;;15.77;82.48
73297;BME280;61524;50.938;11.396;2022-10-31T10:48:47;99568.34;;;15.87;81.06
73297;BME280;61524;50.938;11.396;2022-10-31T10:51:21;99550.56;;;15.91;81.30
73297;BME280;61524;50.938;11.396;2022-10-31T10:54:00;99556.47;;;15.98;80.50
73297;BME280;61524;50.938;11.396;2022-10-31T10:58:59;99549.22;;;16.04;81.86
73297;BME280;61524;50.938;11.396;2022-10-31T11:01:25;99542.19;;;16.08;82.26
73297;BME280;61524;50.938;11.396;2022-10-31T11:03:50;99550.28;;;16.23;81.29
73297;BME280;61524;50.938;11.396;2022-10-31T11:06:21;99542.19;;;16.33;79.90
73297;BME280;61524;50.938;11.396;2022-10-31T11:08:51;99531.41;;;16.33;80.24
73297;BME280;61524;50.938;11.396;2022-10-31T11:13:44;99522.94;;;16.70;79.55
73297;BME280;61524;50.938;11.396;2022-10-31T11:16:14;99519.19;;;16.76;78.93
73297;BME280;61524;50.938;11.396;2022-10-31T11:18:45;99522.94;;;16.81;78.50
73297;BME280;61524;50.938;11.396;2022-10-31T11:21:38;99522.63;;;16.92;79.03
73297;BME280;61524;50.938;11.396;2022-10-31T11:26:36;99514.31;;;16.73;77.68
73297;BME280;61524;50.938;11.396;2022-10-31T11:29:03;99510.81;;;16.68;78.03
73297;BME280;61524;50.938;11.396;2022-10-31T11:31:32;99502.75;;;16.58;79.29
73297;BME280;61524;50.938;11.396;2022-10-31T11:34:04;99506.78;;;16.60;79.02
73297;BME280;61524;50.938;11.396;2022-10-31T11:36:36;99501.69;;;16.53;79.95
73297;BME280;61524;50.938;11.396;2022-10-31T11:39:05;99507.88;;;16.54;79.09
73297;BME280;61524;50.938;11.396;2022-10-31T11:41:36;99501.13;;;16.62;79.23
73297;BME280;61524;50.938;11.396;2022-10-31T11:46:41;99495.47;;;16.58;78.80
73297;BME280;61524;50.938;11.396;2022-10-31T11:49:22;99502.19;;;16.66;79.00
73297;BME280;61524;50.938;11.396;2022-10-31T11:51:52;99490.88;;;16.64;78.35
73297;BME280;61524;50.938;11.396;2022-10-31T11:54:25;99491.94;;;16.73;78.16
73297;BME280;61524;50.938;11.396;2022-10-31T11:56:52;99492.22;;;16.71;78.02
73297;BME280;61524;50.938;11.396;2022-10-31T11:59:38;99491.63;;;16.85;77.92
73297;BME280;61524;50.938;11.396;2022-10-31T12:02:18;99481.09;;;16.83;77.64
73297;BME280;61524;50.938;11.396;2022-10-31T12:04:47;99474.59;;;16.89;77.61
73297;BME280;61524;50.938;11.396;2022-10-31T12:07:14;99479.94;;;16.99;77.98
73297;BME280;61524;50.938;11.396;2022-10-31T12:09:40;99459.00;;;16.76;77.16
73297;BME280;61524;50.938;11.396;2022-10-31T12:15:53;99469.25;;;16.79;77.51
73297;BME280;61524;50.938;11.396;2022-10-31T12:28:41;99456.56;;;16.79;79.04
73297;BME280;61524;50.938;11.396;2022-10-31T12:31:32;99451.44;;;16.78;78.69
73297;BME280;61524;50.938;11.396;2022-10-31T12:37:23;99439.81;;;16.83;79.28
73297;BME280;61524;50.938;11.396;2022-10-31T12:48:30;99441.69;;;16.87;78.31
73297;BME280;61524;50.938;11.396;2022-10-31T13:02:29;99418.13;;;17.37;76.39
73297;BME280;61524;50.938;11.396;2022-10-31T13:05:19;99417.06;;;17.38;76.72
73297;BME280;61524;50.938;11.396;2022-10-31T13:08:06;99423.50;;;17.42;75.57
73297;BME280;61524;50.938;11.396;2022-10-31T13:10:42;99410.78;;;17.43;76.79
73297;BME280;61524;50.938;11.396;2022-10-31T13:16:00;99413.34;;;17.29;78.03
73297;BME280;61524;50.938;11.396;2022-10-31T13:18:38;99400.94;;;17.28;77.44
73297;BME280;61524;50.938;11.396;2022-10-31T13:21:07;99401.97;;;17.32;78.03
73297;BME280;61524;50.938;11.396;2022-10-31T13:23:36;99395.78;;;17.26;77.83
73297;BME280;61524;50.938;11.396;2022-10-31T13:29:02;99382.63;;;17.20;78.12
73297;BME280;61524;50.938;11.396;2022-10-31T13:31:30;99385.34;;;17.15;78.83
73297;BME280;61524;50.938;11.396;2022-10-31T13:34:04;99380.97;;;17.24;77.73
73297;BME280;61524;50.938;11.396;2022-10-31T13:44:38;99381.38;;;17.07;79.40
73297;BME280;61524;50.938;11.396;2022-10-31T13:47:21;99374.63;;;17.04;79.25
73297;BME280;61524;50.938;11.396;2022-10-31T13:49:47;99362.72;;;17.05;79.56
73297;BME280;61524;50.938;11.396;2022-10-31T13:52:16;99368.13;;;17.05;79.23
73297;BME280;61524;50.938;11.396;2022-10-31T13:54:44;99368.69;;;17.08;79.18
73297;BME280;61524;50.938;11.396;2022-10-31T13:59:38;99352.84;;;16.96;80.40
73297;BME280;61524;50.938;11.396;2022-10-31T14:02:15;99357.94;;;16.97;79.74
73297;BME280;61524;50.938;11.396;2022-10-31T14:04:47;99360.97;;;16.91;80.07
73297;BME280;61524;50.938;11.396;2022-10-31T14:07:18;99348.28;;;16.91;80.47
73297;BME280;61524;50.938;11.396;2022-10-31T14:10:02;99347.75;;;16.84;80.72
73297;BME280;61524;50.938;11.396;2022-10-31T14:12:36;99353.16;;;16.84;81.31
73297;BME280;61524;50.938;11.396;2022-10-31T14:17:58;99350.78;;;16.77;81.70
73297;BME280;61524;50.938;11.396;2022-10-31T14:22:57;99341.13;;;16.61;85.85
73297;BME280;61524;50.938;11.396;2022-10-31T14:25:36;99333.41;;;16.44;87.09
73297;BME280;61524;50.938;11.396;2022-10-31T14:28:18;99340.50;;;16.25;89.05
73297;BME280;61524;50.938;11.396;2022-10-31T14:30:55;99335.66;;;16.27;89.13
73297;BME280;61524;50.938;11.396;2022-10-31T14:33:23;99335.63;;;16.32;89.25
73297;BME280;61524;50.938;11.396;2022-10-31T14:38:46;99325.72;;;16.12;90.87
73297;BME280;61524;50.938;11.396;2022-10-31T14:47:17;99315.91;;;15.77;92.81
73297;BME280;61524;50.938;11.396;2022-10-31T14:52:14;99331.00;;;15.68;93.52
73297;BME280;61524;50.938;11.396;2022-10-31T14:54:45;99314.56;;;15.64;93.74
73297;BME280;61524;50.938;11.396;2022-10-31T14:57:26;99314.81;;;15.58;93.43
73297;BME280;61524;50.938;11.396;2022-10-31T14:59:56;99322.38;;;15.51;93.90
73297;BME280;61524;50.938;11.396;2022-10-31T15:02:28;99310.81;;;15.40;94.25
73297;BME280;61524;50.938;11.396;2022-10-31T15:04:56;99305.44;;;15.35;93.98
73297;BME280;61524;50.938;11.396;2022-10-31T15:07:25;99309.47;;;15.27;94.45
73297;BME280;61524;50.938;11.396;2022-10-31T15:10:04;99300.88;;;15.20;94.96